Time;durP1;ratioP1;P1;durP2;ratioP2;P2;SDS_P1;SDS_P2;PMS_P1;PMS_P2;Temp;Humidity;BMP_temperature;BMP_pressure;BME280_temperature;BME280_humidity;BME280_pressure;Samples;Min_cycle;Max_cycle;Signal;HPM_P1;HPM_P2
2023/07/08 00:02:33;;;;;;;11.30;6.70;;;;;;;13.73;66.95;101144.83;103440;282;38254;-74
2023/07/08 00:05:10;;;;;;;9.50;6.30;;;;;;;13.71;67.03;101142.08;103414;282;38369;-74
2023/07/08 00:07:44;;;;;;;10.50;6.20;;;;;;;13.66;67.22;101136.14;103498;282;38243;-74
2023/07/08 00:10:22;;;;;;;13.90;7.00;;;;;;;13.63;67.42;101142.05;103419;282;38262;-74
2023/07/08 00:12:57;;;;;;;12.60;7.00;;;;;;;13.60;67.44;101143.90;103462;282;38250;-74
2023/07/08 00:15:33;;;;;;;10.70;6.60;;;;;;;13.58;67.54;101143.65;103433;282;38276;-75
2023/07/08 00:18:12;;;;;;;10.90;7.00;;;;;;;13.56;67.65;101145.83;103432;282;39685;-72
2023/07/08 00:20:49;;;;;;;11.60;6.30;;;;;;;13.52;67.59;101150.34;103484;282;38692;-72
2023/07/08 00:23:24;;;;;;;9.80;5.80;;;;;;;13.47;67.49;101147.41;102764;282;901190;-75
2023/07/08 00:25:59;;;;;;;10.00;6.00;;;;;;;13.36;67.73;101145.00;103280;283;38537;-75
2023/07/08 00:28:33;;;;;;;9.40;5.70;;;;;;;13.32;68.00;101148.30;103512;282;38821;-76
2023/07/08 00:31:12;;;;;;;11.50;6.10;;;;;;;13.28;68.29;101151.77;103451;282;38282;-75
2023/07/08 00:33:46;;;;;;;8.60;6.30;;;;;;;13.26;68.62;101154.30;102718;282;901392;-73
2023/07/08 00:36:20;;;;;;;11.80;6.90;;;;;;;13.25;68.65;101159.25;103399;282;38473;-74
2023/07/08 00:38:54;;;;;;;11.40;7.20;;;;;;;13.23;68.74;101158.08;103414;282;38246;-74
2023/07/08 00:41:31;;;;;;;10.50;6.70;;;;;;;13.18;68.90;101158.23;103320;284;38512;-74
2023/07/08 00:44:06;;;;;;;9.20;6.20;;;;;;;13.13;68.96;101160.52;103425;282;38261;-75
2023/07/08 00:46:48;;;;;;;12.20;6.90;;;;;;;13.09;69.26;101160.16;103398;282;38357;-74
2023/07/08 00:49:38;;;;;;;13.90;7.00;;;;;;;13.07;69.37;101161.09;103501;282;38466;-75
2023/07/08 00:52:27;;;;;;;12.80;7.30;;;;;;;13.03;69.53;101158.08;103446;282;38368;-74
2023/07/08 00:55:05;;;;;;;15.30;7.50;;;;;;;12.98;69.81;101158.08;103411;282;38246;-73
2023/07/08 00:57:43;;;;;;;13.20;6.70;;;;;;;12.97;69.89;101162.65;103462;282;38284;-75
2023/07/08 01:00:19;;;;;;;14.40;6.50;;;;;;;12.97;70.07;101158.48;103420;282;39594;-73
2023/07/08 01:02:56;;;;;;;11.30;6.50;;;;;;;12.96;70.16;101158.50;103462;282;38237;-73
2023/07/08 01:05:34;;;;;;;11.50;6.70;;;;;;;12.92;69.85;101156.01;103431;282;38544;-72
2023/07/08 01:08:08;;;;;;;11.90;6.90;;;;;;;12.84;70.25;101152.63;103504;282;38282;-73
2023/07/08 01:10:46;;;;;;;12.60;6.50;;;;;;;12.78;70.48;101152.82;103497;282;38507;-75
2023/07/08 01:13:20;;;;;;;13.30;6.50;;;;;;;12.79;70.59;101157.18;103453;282;38474;-74
2023/07/08 01:15:54;;;;;;;12.60;7.00;;;;;;;12.80;70.45;101159.08;103469;282;38119;-75
2023/07/08 01:18:28;;;;;;;9.90;6.80;;;;;;;12.81;70.68;101158.15;103432;282;38697;-72
2023/07/08 01:21:07;;;;;;;10.90;7.20;;;;;;;12.78;70.77;101155.97;103420;282;39780;-72
2023/07/08 01:23:39;;;;;;;;;;;;;;;12.73;70.96;101156.84;103404;282;38582;-74
2023/07/08 01:26:13;;;;;;;10.60;6.60;;;;;;;12.67;71.19;101155.84;103414;282;38408;-75
2023/07/08 01:28:47;;;;;;;13.40;7.00;;;;;;;12.68;71.10;101154.41;103357;282;175081;-74
2023/07/08 01:31:21;;;;;;;13.40;7.50;;;;;;;12.69;71.48;101153.30;103425;282;39422;-73
2023/07/08 01:33:56;;;;;;;13.90;7.30;;;;;;;12.66;71.30;101153.58;103472;282;39376;-75
2023/07/08 01:36:31;;;;;;;16.50;7.40;;;;;;;12.62;71.36;101151.96;103412;282;38791;-73
2023/07/08 01:39:05;;;;;;;12.80;7.70;;;;;;;12.59;71.66;101147.50;103411;282;38247;-74
2023/07/08 01:41:39;;;;;;;14.90;7.00;;;;;;;12.59;71.73;101148.05;103325;282;171977;-74
2023/07/08 01:44:28;;;;;;;13.90;7.00;;;;;;;12.56;71.91;101151.83;103472;282;38275;-74
2023/07/08 01:47:04;;;;;;;11.80;6.60;;;;;;;12.51;72.02;101157.05;103427;282;38271;-75
2023/07/08 01:49:38;;;;;;;11.40;7.00;;;;;;;12.47;71.84;101153.70;102869;282;902482;-73
2023/07/08 01:52:13;;;;;;;11.90;7.10;;;;;;;12.43;71.95;101153.14;103435;282;38321;-74
2023/07/08 01:54:49;;;;;;;12.60;7.00;;;;;;;12.40;71.99;101156.05;103392;282;172477;-74
2023/07/08 01:57:23;;;;;;;8.90;6.90;;;;;;;12.36;72.06;101153.38;103494;282;39401;-73
2023/07/08 01:59:58;;;;;;;12.00;7.50;;;;;;;12.31;72.14;101147.57;103430;282;39161;-75
2023/07/08 02:02:32;;;;;;;13.80;7.00;;;;;;;12.30;72.33;101141.32;103499;282;38517;-74
2023/07/08 02:05:07;;;;;;;9.60;7.10;;;;;;;12.29;72.55;101144.33;103448;278;39540;-73
2023/07/08 02:07:41;;;;;;;10.00;7.20;;;;;;;12.27;72.66;101143.18;103453;282;39472;-74
2023/07/08 02:10:15;;;;;;;11.20;8.40;;;;;;;12.25;72.88;101141.13;103431;282;38763;-75
2023/07/08 02:12:49;;;;;;;12.70;8.40;;;;;;;12.25;72.97;101136.25;103412;282;38292;-74
2023/07/08 02:15:24;;;;;;;17.20;8.40;;;;;;;12.22;73.06;101131.27;103419;282;38235;-75
2023/07/08 02:17:58;;;;;;;15.70;8.10;;;;;;;12.19;73.12;101135.73;103441;282;40123;-73
2023/07/08 02:20:32;;;;;;;16.10;8.00;;;;;;;12.17;73.25;101133.52;103419;282;38676;-73
2023/07/08 02:23:06;;;;;;;17.60;8.00;;;;;;;12.16;73.46;101133.39;103473;282;38422;-74
2023/07/08 02:25:40;;;;;;;17.40;8.80;;;;;;;12.14;73.57;101136.04;103431;282;38269;-74
2023/07/08 02:28:15;;;;;;;16.80;8.40;;;;;;;12.12;73.69;101137.34;103449;282;38833;-74
2023/07/08 02:30:49;;;;;;;15.20;7.70;;;;;;;12.11;73.73;101139.14;103431;282;38705;-74
2023/07/08 02:33:27;;;;;;;17.30;8.20;;;;;;;12.09;73.83;101133.77;103474;282;38269;-76
2023/07/08 02:36:01;;;;;;;19.90;8.60;;;;;;;12.10;74.04;101131.99;103305;282;39513;-75
2023/07/08 02:38:36;;;;;;;17.00;9.20;;;;;;;12.08;74.16;101131.17;103456;282;38711;-73
2023/07/08 02:41:11;;;;;;;19.60;8.40;;;;;;;12.07;74.30;101132.95;103446;282;39474;-73
2023/07/08 02:43:45;;;;;;;18.20;8.10;;;;;;;12.07;74.35;101134.20;103440;282;39189;-75
2023/07/08 02:46:21;;;;;;;16.40;8.50;;;;;;;12.08;74.46;101130.66;103418;282;38368;-74
2023/07/08 02:48:55;;;;;;;18.00;8.70;;;;;;;12.07;74.57;101134.02;103456;282;38384;-73
2023/07/08 02:51:30;;;;;;;17.00;8.60;;;;;;;12.06;74.72;101130.20;103420;283;39746;-72
2023/07/08 02:54:04;;;;;;;14.70;8.30;;;;;;;12.05;74.77;101130.20;103310;284;38440;-72
2023/07/08 02:56:38;;;;;;;12.60;8.20;;;;;;;12.06;74.97;101128.27;103394;282;38388;-73
2023/07/08 02:59:12;;;;;;;16.80;8.10;;;;;;;12.08;75.20;101131.19;103401;282;38846;-73
2023/07/08 03:01:46;;;;;;;10.70;8.10;;;;;;;12.09;75.26;101136.92;103433;282;38468;-73
2023/07/08 03:04:21;;;;;;;15.10;8.20;;;;;;;12.10;75.46;101140.56;102821;282;901511;-73
2023/07/08 03:06:56;;;;;;;15.60;7.90;;;;;;;12.11;75.55;101141.92;103408;282;38723;-73
2023/07/08 03:09:32;;;;;;;13.40;7.70;;;;;;;12.13;75.77;101136.81;103500;282;38510;-75
2023/07/08 03:12:09;;;;;;;17.90;7.90;;;;;;;12.17;75.82;101139.83;103376;282;38241;-74
2023/07/08 03:14:43;;;;;;;14.20;7.90;;;;;;;12.21;76.16;101139.52;103475;282;39443;-73
2023/07/08 03:17:19;;;;;;;10.30;7.10;;;;;;;12.25;76.29;101144.09;103457;282;39446;-73
2023/07/08 03:19:53;;;;;;;9.60;7.30;;;;;;;12.28;76.51;101146.12;103501;282;38554;-72
2023/07/08 03:22:28;;;;;;;11.70;6.90;;;;;;;12.33;76.45;101147.69;103435;282;38607;-74
2023/07/08 03:25:02;;;;;;;11.10;7.20;;;;;;;12.41;76.72;101146.55;103491;282;38298;-75
2023/07/08 03:27:37;;;;;;;12.00;7.10;;;;;;;12.49;76.74;101146.12;103411;282;172423;-74
2023/07/08 03:30:13;;;;;;;10.00;7.00;;;;;;;12.55;76.76;101145.36;103481;282;38224;-75
2023/07/08 03:32:47;;;;;;;11.00;6.50;;;;;;;12.64;76.86;101144.04;103499;282;38516;-75
2023/07/08 03:35:22;;;;;;;10.60;6.90;;;;;;;12.78;76.87;101145.32;103323;282;38658;-74
2023/07/08 03:37:56;;;;;;;8.30;6.40;;;;;;;12.90;76.88;101139.98;103445;282;38292;-74
2023/07/08 03:40:31;;;;;;;9.70;6.70;;;;;;;13.12;76.63;101140.08;103431;282;39920;-74
2023/07/08 03:43:05;;;;;;;8.50;6.30;;;;;;;13.74;76.88;101141.81;103441;282;38789;-75
2023/07/08 03:45:39;;;;;;;7.50;6.00;;;;;;;14.68;77.11;101138.32;103337;282;171904;-74
2023/07/08 03:48:14;;;;;;;8.30;6.30;;;;;;;15.73;76.09;101133.43;103458;282;38535;-73
2023/07/08 03:50:48;;;;;;;10.20;5.90;;;;;;;16.79;74.47;101132.42;103415;282;38556;-73
2023/07/08 03:53:22;;;;;;;7.60;5.80;;;;;;;17.81;72.35;101123.27;103453;271;39509;-74
2023/07/08 03:55:58;;;;;;;8.80;5.50;;;;;;;18.78;69.63;101125.42;103299;284;38260;-74
2023/07/08 03:58:32;;;;;;;11.40;5.50;;;;;;;19.69;66.24;101125.98;103439;282;39126;-75
2023/07/08 04:01:09;;;;;;;7.00;5.20;;;;;;;20.48;62.98;101123.42;103431;282;39286;-74
2023/07/08 04:03:43;;;;;;;10.00;5.40;;;;;;;21.19;60.13;101124.95;103494;282;39665;-73
2023/07/08 04:06:17;;;;;;;7.60;5.50;;;;;;;21.84;57.47;101125.63;103448;282;38393;-73
2023/07/08 04:08:51;;;;;;;8.40;5.40;;;;;;;22.42;55.29;101127.56;103473;282;38226;-72
2023/07/08 04:11:27;;;;;;;8.70;5.90;;;;;;;22.95;53.22;101125.98;103353;282;40557;-73
2023/07/08 04:14:01;;;;;;;7.70;5.70;;;;;;;23.41;52.06;101124.54;103487;282;38506;-73
2023/07/08 04:16:49;;;;;;;8.60;5.20;;;;;;;23.88;50.26;101124.63;103448;282;38229;-72
2023/07/08 04:19:23;;;;;;;6.50;5.30;;;;;;;24.41;48.77;101122.52;103450;282;38292;-75
2023/07/08 04:21:57;;;;;;;6.80;5.00;;;;;;;24.84;47.82;101119.63;103436;282;38723;-75
2023/07/08 04:24:31;;;;;;;9.50;6.40;;;;;;;25.31;46.36;101118.36;103420;282;38496;-74
2023/07/08 04:27:06;;;;;;;11.20;6.40;;;;;;;25.58;45.04;101113.17;103355;282;38242;-74
2023/07/08 04:29:42;;;;;;;9.30;6.70;;;;;;;25.29;44.82;101116.55;103441;282;38282;-75
2023/07/08 04:32:16;;;;;;;9.20;6.80;;;;;;;24.65;45.16;101120.13;103481;282;39450;-73
2023/07/08 04:34:50;;;;;;;11.00;7.50;;;;;;;24.03;45.88;101118.63;103241;284;39597;-73
2023/07/08 04:37:24;;;;;;;12.80;7.00;;;;;;;23.48;46.64;101123.97;103279;283;174471;-74
2023/07/08 04:40:01;;;;;;;7.90;7.00;;;;;;;22.97;47.60;101118.72;103243;282;39167;-74
2023/07/08 04:42:35;;;;;;;11.40;7.00;;;;;;;22.53;48.26;101115.67;103415;282;38360;-74
2023/07/08 04:45:11;;;;;;;11.30;7.70;;;;;;;22.16;48.95;101112.77;103416;282;38243;-74
2023/07/08 04:47:51;;;;;;;10.10;7.40;;;;;;;21.88;49.73;101113.61;103493;282;38531;-73
2023/07/08 04:50:26;;;;;;;11.60;7.30;;;;;;;21.68;50.73;101113.15;103424;282;39694;-73
2023/07/08 04:53:01;;;;;;;7.70;6.90;;;;;;;21.53;51.45;101115.09;103434;282;39376;-74
2023/07/08 04:55:35;;;;;;;9.20;7.20;;;;;;;21.55;52.06;101115.27;103438;282;39370;-74
2023/07/08 04:58:09;;;;;;;8.10;6.20;;;;;;;21.67;52.58;101115.20;103499;282;38235;-73
2023/07/08 05:00:45;;;;;;;9.50;6.40;;;;;;;21.65;52.67;101110.87;103410;282;38735;-75
2023/07/08 05:03:19;;;;;;;9.10;6.70;;;;;;;21.85;53.50;101109.60;103454;282;39936;-74
2023/07/08 05:05:53;;;;;;;6.20;5.60;;;;;;;22.73;54.66;101108.66;103452;282;39207;-74
2023/07/08 05:08:28;;;;;;;8.40;5.30;;;;;;;23.95;54.05;101107.25;103434;282;38380;-74
2023/07/08 05:11:02;;;;;;;8.70;5.10;;;;;;;25.19;50.76;101105.24;103384;282;39501;-73
2023/07/08 05:13:36;;;;;;;6.30;4.90;;;;;;;26.53;47.05;101103.90;103449;282;38389;-74
2023/07/08 05:16:10;;;;;;;6.80;4.70;;;;;;;27.60;43.97;101107.96;103491;282;38233;-74
2023/07/08 05:18:45;;;;;;;5.70;4.90;;;;;;;28.58;41.06;101102.63;103061;282;475549;-73
2023/07/08 05:21:20;;;;;;;7.00;4.60;;;;;;;29.40;39.28;101101.89;103407;282;39665;-73
2023/07/08 05:23:55;;;;;;;5.10;4.10;;;;;;;30.24;37.49;101097.13;103392;270;38419;-73
2023/07/08 05:26:29;;;;;;;6.50;4.40;;;;;;;30.83;36.37;101097.98;103419;282;38255;-73
2023/07/08 05:29:04;;;;;;;5.20;4.40;;;;;;;31.20;34.88;101103.61;103432;282;39892;-75
2023/07/08 05:31:39;;;;;;;4.90;3.70;;;;;;;31.58;33.14;101102.02;103429;282;38602;-75
2023/07/08 05:34:13;;;;;;;7.00;4.00;;;;;;;31.94;32.21;101103.12;103440;282;38800;-72
2023/07/08 05:36:47;;;;;;;6.10;3.60;;;;;;;32.41;31.69;101099.14;103356;283;41420;-75
2023/07/08 05:39:22;;;;;;;5.80;3.60;;;;;;;32.84;30.70;101104.38;103439;282;39454;-73
2023/07/08 05:41:56;;;;;;;5.50;3.90;;;;;;;33.27;29.49;101099.94;103438;282;38396;-73
2023/07/08 05:44:30;;;;;;;6.80;4.00;;;;;;;33.52;28.63;101101.45;103459;282;38746;-75
2023/07/08 05:47:05;;;;;;;4.60;4.10;;;;;;;33.67;28.32;101101.08;103472;282;39689;-75
2023/07/08 05:49:42;;;;;;;6.50;4.10;;;;;;;33.97;27.64;101097.90;103427;282;38254;-75
2023/07/08 05:52:16;;;;;;;7.10;3.60;;;;;;;34.41;26.74;101097.05;103448;282;39811;-74
2023/07/08 05:54:50;;;;;;;4.70;3.60;;;;;;;34.73;26.24;101095.92;103447;282;38255;-75
2023/07/08 05:57:24;;;;;;;4.70;3.50;;;;;;;35.07;25.56;101095.17;103480;282;39779;-74
2023/07/08 05:59:58;;;;;;;4.30;3.50;;;;;;;35.49;24.78;101101.79;103417;282;38452;-74
2023/07/08 06:02:32;;;;;;;6.30;3.60;;;;;;;35.96;24.51;101099.08;103381;283;39678;-75
2023/07/08 06:05:08;;;;;;;7.20;4.30;;;;;;;36.07;23.71;101095.71;103435;271;38388;-74
2023/07/08 06:07:43;;;;;;;3.20;2.90;;;;;;;36.17;24.20;101093.72;103493;282;38309;-73
2023/07/08 06:10:19;;;;;;;3.70;2.90;;;;;;;36.40;23.82;101090.48;103430;282;39245;-78
2023/07/08 06:12:53;;;;;;;4.70;3.30;;;;;;;36.73;23.34;101092.89;103522;282;38233;-74
2023/07/08 06:15:27;;;;;;;3.80;3.40;;;;;;;37.01;22.85;101097.42;103395;282;38272;-73
2023/07/08 06:18:02;;;;;;;4.20;3.20;;;;;;;37.16;22.34;101093.67;103412;282;38289;-72
2023/07/08 06:20:37;;;;;;;3.20;2.90;;;;;;;37.17;21.76;101088.80;103424;282;39415;-71
2023/07/08 06:23:12;;;;;;;3.30;3.00;;;;;;;37.34;21.76;101090.96;103467;271;39194;-76
2023/07/08 06:25:47;;;;;;;3.50;3.20;;;;;;;37.42;21.84;101089.60;103411;271;38547;-75
2023/07/08 06:28:23;;;;;;;4.00;3.10;;;;;;;37.57;21.64;101089.41;103526;282;39456;-76
2023/07/08 06:30:58;;;;;;;4.00;2.90;;;;;;;37.85;21.28;101088.83;103438;282;38578;-75
2023/07/08 06:33:32;;;;;;;3.70;3.10;;;;;;;38.25;21.26;101087.52;103432;282;38380;-76
2023/07/08 06:36:07;;;;;;;4.80;3.60;;;;;;;38.63;20.33;101082.81;103410;282;38351;-72
2023/07/08 06:38:45;;;;;;;4.90;3.50;;;;;;;38.94;20.03;101083.58;103506;282;39116;-71
2023/07/08 06:41:19;;;;;;;5.30;4.10;;;;;;;39.02;19.31;101079.42;103438;282;38571;-70
2023/07/08 06:43:54;;;;;;;4.30;3.60;;;;;;;39.15;19.55;101076.60;103475;282;38493;-71
2023/07/08 06:46:28;;;;;;;3.90;3.70;;;;;;;39.35;19.22;101079.27;103413;282;38268;-72
2023/07/08 06:49:08;;;;;;;4.20;3.70;;;;;;;39.51;18.96;101082.05;103429;282;38464;-73
2023/07/08 06:51:42;;;;;;;4.30;3.90;;;;;;;39.37;18.59;101078.11;103438;282;40116;-73
2023/07/08 06:54:22;;;;;;;3.80;3.30;;;;;;;39.29;18.85;101079.86;103506;282;39925;-74
2023/07/08 06:56:57;;;;;;;3.50;2.70;;;;;;;39.47;18.59;101076.20;103419;282;38344;-72
2023/07/08 06:59:32;;;;;;;3.00;2.40;;;;;;;39.61;18.36;101077.66;103353;282;173775;-72
2023/07/08 07:02:10;;;;;;;3.20;2.70;;;;;;;39.78;17.52;101074.38;103318;282;174751;-74
2023/07/08 07:04:42;;;;;;;;;;;;;;;40.17;17.53;101070.45;103479;282;39325;-72
2023/07/08 07:07:16;;;;;;;2.30;2.10;;;;;;;40.28;17.25;101068.95;103483;282;38232;-73
2023/07/08 07:09:51;;;;;;;4.40;2.40;;;;;;;40.60;16.91;101063.19;103527;282;39898;-71
2023/07/08 07:12:26;;;;;;;2.20;2.00;;;;;;;40.74;16.97;101060.54;103436;282;39605;-74
2023/07/08 07:15:00;;;;;;;4.50;2.20;;;;;;;40.93;16.41;101058.88;103415;282;38287;-72
2023/07/08 07:17:35;;;;;;;3.30;2.00;;;;;;;41.08;16.18;101061.27;103549;282;39483;-73
2023/07/08 07:20:11;;;;;;;3.90;2.10;;;;;;;41.26;15.87;101059.05;102831;282;882243;-75
2023/07/08 07:22:46;;;;;;;3.90;2.40;;;;;;;41.30;16.01;101056.59;103474;282;38312;-73
2023/07/08 07:25:20;;;;;;;3.70;2.40;;;;;;;41.33;16.02;101051.75;103409;282;38309;-73
2023/07/08 07:27:54;;;;;;;3.50;2.20;;;;;;;41.59;15.99;101053.11;103440;282;39566;-72
2023/07/08 07:30:28;;;;;;;2.60;1.90;;;;;;;41.86;15.31;101051.95;103447;282;38462;-73
2023/07/08 07:33:04;;;;;;;2.90;1.90;;;;;;;41.82;15.64;101054.29;103468;282;39862;-70
2023/07/08 07:35:42;;;;;;;2.80;2.10;;;;;;;42.01;15.28;101050.06;103397;282;38713;-70
2023/07/08 07:38:17;;;;;;;3.10;2.00;;;;;;;42.15;14.97;101050.92;103444;282;39667;-75
2023/07/08 07:40:54;;;;;;;2.50;2.10;;;;;;;42.19;15.24;101052.01;103458;282;38250;-73
2023/07/08 07:43:29;;;;;;;;;;;;;;;42.05;14.70;101048.69;103502;282;39795;-70
2023/07/08 07:46:07;;;;;;;2.20;2.00;;;;;;;41.58;14.13;101045.00;103299;282;173332;-70
2023/07/08 07:48:43;;;;;;;2.90;2.00;;;;;;;41.39;15.11;101045.38;103459;282;39019;-72
2023/07/08 07:51:17;;;;;;;2.50;2.20;;;;;;;41.46;15.35;101044.61;103476;282;38247;-73
2023/07/08 07:53:52;;;;;;;3.60;1.90;;;;;;;41.43;14.86;101048.17;103429;282;38728;-73
2023/07/08 07:56:26;;;;;;;2.50;1.90;;;;;;;41.60;15.12;101050.16;103546;282;39251;-73
2023/07/08 07:59:00;;;;;;;2.00;1.70;;;;;;;41.59;14.64;101048.77;103538;282;38294;-70
2023/07/08 08:01:36;;;;;;;2.90;1.70;;;;;;;41.65;14.19;101048.32;103443;282;38524;-71
2023/07/08 08:04:10;;;;;;;2.10;1.40;;;;;;;41.68;14.32;101044.80;103501;282;39333;-72
2023/07/08 08:06:45;;;;;;;2.70;1.90;;;;;;;41.88;14.58;101045.22;103449;282;38353;-72
2023/07/08 08:09:19;;;;;;;1.90;1.40;;;;;;;42.13;14.42;101043.85;103544;282;39503;-72
2023/07/08 08:11:59;;;;;;;3.90;1.40;;;;;;;42.45;14.06;101042.23;103546;282;38938;-76
2023/07/08 08:14:35;;;;;;;1.50;1.40;;;;;;;42.66;13.89;101039.02;103434;284;39773;-70
2023/07/08 08:17:11;;;;;;;2.10;1.20;;;;;;;42.74;13.57;101039.45;103385;282;173325;-70
2023/07/08 08:20:17;;;;;;;2.00;1.80;;;;;;;42.66;12.99;101034.15;103531;282;38935;-71
2023/07/08 08:22:51;;;;;;;2.30;1.50;;;;;;;42.21;12.91;101031.56;103585;280;38582;-72
2023/07/08 08:25:28;;;;;;;2.00;1.80;;;;;;;42.03;13.02;101031.94;103496;281;38312;-71
2023/07/08 08:28:02;;;;;;;2.00;1.30;;;;;;;42.32;13.82;101039.83;103519;280;38339;-71
2023/07/08 08:30:36;;;;;;;1.90;1.70;;;;;;;42.65;13.75;101040.92;103551;281;38959;-70
2023/07/08 08:33:14;;;;;;;3.90;1.80;;;;;;;42.74;13.73;101046.43;103517;281;38801;-70
2023/07/08 08:35:52;;;;;;;4.10;2.00;;;;;;;42.82;13.07;101051.09;103498;281;38534;-72
2023/07/08 08:38:28;;;;;;;1.80;1.60;;;;;;;42.89;13.56;101048.88;103465;282;38281;-73
2023/07/08 08:41:07;;;;;;;1.80;1.60;;;;;;;42.96;13.36;101045.19;103490;281;173323;-71
2023/07/08 08:43:43;;;;;;;2.40;1.60;;;;;;;42.61;13.57;101041.88;103598;281;38748;-71
2023/07/08 08:46:25;;;;;;;2.90;1.60;;;;;;;42.10;13.51;101046.67;103483;281;38683;-71
2023/07/08 08:49:03;;;;;;;1.60;1.50;;;;;;;41.48;14.33;101046.86;103508;282;38528;-71
2023/07/08 08:51:37;;;;;;;1.90;1.50;;;;;;;41.38;14.46;101050.30;103475;282;39030;-71
2023/07/08 08:54:12;;;;;;;2.30;1.70;;;;;;;41.33;14.72;101044.85;103476;282;39408;-72
2023/07/08 08:56:54;;;;;;;1.70;1.40;;;;;;;41.55;14.58;101038.36;103511;281;38257;-73
2023/07/08 08:59:36;;;;;;;2.10;1.60;;;;;;;41.67;14.08;101041.15;103452;282;38271;-71
2023/07/08 09:02:26;;;;;;;1.60;1.50;;;;;;;41.79;13.66;101034.45;103520;281;39922;-70
2023/07/08 09:05:03;;;;;;;2.00;1.60;;;;;;;41.84;13.07;101038.21;103556;282;38481;-71
2023/07/08 09:07:46;;;;;;;1.90;1.60;;;;;;;41.35;13.20;101038.91;103510;282;40001;-71
2023/07/08 09:10:31;;;;;;;2.80;1.90;;;;;;;41.22;14.19;101036.66;103604;281;38863;-73
2023/07/08 09:13:05;;;;;;;2.70;1.70;;;;;;;40.77;13.97;101043.79;103488;282;38526;-77
2023/07/08 09:15:39;;;;;;;3.30;2.00;;;;;;;40.21;14.35;101046.95;103622;281;38440;-78
2023/07/08 09:18:22;;;;;;;2.50;1.90;;;;;;;39.61;15.22;101048.88;103587;270;38296;-77
2023/07/08 09:20:57;;;;;;;2.00;1.80;;;;;;;38.87;15.56;101045.48;103607;281;38234;-75
2023/07/08 09:23:34;;;;;;;5.90;2.10;;;;;;;38.80;15.46;101043.17;103537;282;38295;-76
2023/07/08 09:26:13;;;;;;;3.00;1.60;;;;;;;38.41;15.49;101041.23;103516;282;39306;-78
2023/07/08 09:28:48;;;;;;;3.00;1.50;;;;;;;37.67;16.48;101041.39;103490;282;38483;-77
2023/07/08 09:31:27;;;;;;;3.70;1.70;;;;;;;37.07;16.86;101044.53;103576;282;38315;-77
2023/07/08 09:34:12;;;;;;;1.70;1.50;;;;;;;36.34;16.90;101044.90;103597;282;38366;-77
2023/07/08 09:36:48;;;;;;;2.40;1.80;;;;;;;35.37;17.57;101050.61;103622;281;38912;-77
2023/07/08 09:39:23;;;;;;;2.40;1.50;;;;;;;34.85;18.40;101049.56;103701;282;39709;-79
2023/07/08 09:42:00;;;;;;;1.80;1.70;;;;;;;34.87;19.26;101041.20;103722;281;38859;-79
2023/07/08 09:44:41;;;;;;;1.60;1.50;;;;;;;35.12;19.07;101044.58;103621;282;38278;-77
2023/07/08 09:47:34;;;;;;;2.10;1.40;;;;;;;35.18;18.34;101034.63;103546;282;38948;-72
2023/07/08 09:50:26;;;;;;;2.40;1.60;;;;;;;34.96;18.45;101028.93;103575;282;38391;-74
2023/07/08 09:53:05;;;;;;;3.40;1.90;;;;;;;34.32;18.63;101031.64;103549;282;39865;-73
2023/07/08 09:55:50;;;;;;;1.90;1.50;;;;;;;33.72;19.11;101036.23;103578;281;39499;-73
2023/07/08 09:58:33;;;;;;;3.00;1.70;;;;;;;33.14;19.56;101036.94;103441;282;38237;-73
2023/07/08 10:01:18;;;;;;;3.20;1.90;;;;;;;32.76;20.76;101029.33;103464;282;38272;-72
2023/07/08 10:03:58;;;;;;;3.70;1.60;;;;;;;32.91;21.51;101028.37;103578;278;38250;-72
2023/07/08 10:06:35;;;;;;;1.90;1.70;;;;;;;33.19;20.63;101027.86;103548;281;39638;-73
2023/07/08 10:09:18;;;;;;;2.10;1.60;;;;;;;33.40;21.02;101023.94;103555;282;39483;-73
2023/07/08 10:12:00;;;;;;;2.50;1.60;;;;;;;33.65;20.28;101028.02;103523;282;38291;-74
2023/07/08 10:14:38;;;;;;;2.40;1.70;;;;;;;33.67;19.89;101019.85;103588;282;38516;-74
2023/07/08 10:17:12;;;;;;;;;;;;;;;33.79;19.89;101013.66;103538;281;39432;-74
2023/07/08 10:19:49;;;;;;;2.30;1.60;;;;;;;33.66;20.27;101013.79;103583;281;39498;-72
2023/07/08 10:22:39;;;;;;;2.90;1.80;;;;;;;33.54;20.81;101010.24;103520;282;38262;-70
2023/07/08 10:25:29;;;;;;;1.90;1.70;;;;;;;33.64;20.63;101013.59;103532;281;39040;-74
2023/07/08 10:28:16;;;;;;;2.50;1.70;;;;;;;33.21;19.91;101019.04;103491;282;38682;-74
2023/07/08 10:31:02;;;;;;;2.90;2.00;;;;;;;32.93;20.82;101015.86;103513;281;39499;-71
2023/07/08 10:33:59;;;;;;;3.00;1.50;;;;;;;33.11;21.55;101014.91;103358;282;188420;-71
2023/07/08 10:36:44;;;;;;;3.80;1.70;;;;;;;32.97;21.96;101010.33;103488;281;38427;-70
2023/07/08 10:39:39;;;;;;;3.00;1.50;;;;;;;32.87;22.00;101006.08;103566;282;38403;-74
2023/07/08 10:42:22;;;;;;;2.90;1.80;;;;;;;33.01;22.35;101001.14;103553;281;39552;-75
2023/07/08 10:45:03;;;;;;;5.00;1.90;;;;;;;33.18;21.68;100999.23;103507;282;38594;-73
2023/07/08 10:47:49;;;;;;;1.90;1.70;;;;;;;33.33;21.71;100988.75;103403;282;38603;-73
2023/07/08 10:50:38;;;;;;;6.50;2.00;;;;;;;33.62;21.74;100983.56;103545;282;38986;-74
2023/07/08 10:53:29;;;;;;;3.60;1.80;;;;;;;33.84;20.85;100987.98;103509;281;39448;-75
2023/07/08 10:56:06;;;;;;;2.80;1.80;;;;;;;33.60;20.79;100991.80;103624;282;38288;-74
2023/07/08 10:59:16;;;;;;;3.40;1.90;;;;;;;33.26;21.50;100987.55;103517;281;38290;-73
2023/07/08 11:02:08;;;;;;;2.30;1.70;;;;;;;32.97;21.44;100987.38;103461;282;39871;-74
2023/07/08 11:04:51;;;;;;;2.00;1.80;;;;;;;32.95;22.06;100985.27;103576;282;39003;-73
2023/07/08 11:07:37;;;;;;;2.60;1.70;;;;;;;33.04;21.79;100984.16;103515;282;38344;-73
2023/07/08 11:10:17;;;;;;;4.00;2.50;;;;;;;33.21;22.23;100978.73;103560;281;39402;-74
2023/07/08 11:13:00;;;;;;;3.80;2.10;;;;;;;33.41;21.18;100976.08;103541;282;38237;-75
2023/07/08 11:15:37;;;;;;;2.90;2.20;;;;;;;33.41;21.19;100977.94;103555;281;38691;-75
2023/07/08 11:18:14;;;;;;;2.70;2.20;;;;;;;33.49;21.81;100971.29;103549;281;38229;-74
2023/07/08 11:20:53;;;;;;;2.40;1.90;;;;;;;33.75;21.64;100967.94;103535;281;38275;-71
2023/07/08 11:23:32;;;;;;;2.20;1.70;;;;;;;33.73;21.51;100967.41;103399;282;170983;-72
2023/07/08 11:26:19;;;;;;;3.60;1.80;;;;;;;33.44;21.39;100965.59;103490;282;38683;-73
2023/07/08 11:28:58;;;;;;;2.50;2.00;;;;;;;33.08;22.20;100965.19;103583;282;38624;-73
2023/07/08 11:31:34;;;;;;;3.50;2.00;;;;;;;32.87;22.16;100964.25;103526;281;38245;-73
2023/07/08 11:34:12;;;;;;;7.10;2.30;;;;;;;32.81;22.53;100965.63;103543;281;38221;-74
2023/07/08 11:36:47;;;;;;;3.00;1.90;;;;;;;32.97;22.32;100958.14;103562;281;38231;-74
2023/07/08 11:39:40;;;;;;;3.70;2.30;;;;;;;33.10;21.60;100952.48;103559;282;38329;-75
2023/07/08 11:42:22;;;;;;;2.30;1.80;;;;;;;32.97;21.80;100958.77;103532;282;39457;-73
2023/07/08 11:45:00;;;;;;;2.40;1.90;;;;;;;32.70;21.50;100958.02;103664;281;38481;-74
2023/07/08 11:47:45;;;;;;;2.60;2.10;;;;;;;32.36;22.04;100959.60;103505;281;174157;-75
2023/07/08 11:50:26;;;;;;;2.40;2.10;;;;;;;32.14;22.15;100957.03;103581;281;38275;-73
2023/07/08 11:53:05;;;;;;;2.60;1.80;;;;;;;32.09;22.96;100954.84;103493;282;38298;-72
2023/07/08 11:55:46;;;;;;;2.40;2.20;;;;;;;32.17;22.80;100954.66;103551;281;38683;-73
2023/07/08 11:58:25;;;;;;;2.80;2.10;;;;;;;32.00;21.88;100960.63;103497;280;38725;-74
2023/07/08 12:01:04;;;;;;;4.40;2.10;;;;;;;31.58;22.12;100956.79;103551;281;38726;-72
2023/07/08 12:03:40;;;;;;;2.10;1.80;;;;;;;31.45;22.50;100956.55;103520;281;39415;-70
2023/07/08 12:06:47;;;;;;;2.10;1.90;;;;;;;31.51;22.91;100947.92;103468;281;39418;-73
2023/07/08 12:09:30;;;;;;;3.20;2.50;;;;;;;31.59;22.81;100952.38;103530;281;38364;-72
2023/07/08 12:12:09;;;;;;;3.80;2.00;;;;;;;31.37;22.63;100955.15;103514;282;38863;-72